sensor_id;sensor_type;location;lat;lon;timestamp;P1;durP1;ratioP1;P2;durP2;ratioP2
42602;SDS011;28233;55.748;48.752;2022-07-19T00:00:50;1.42;;;1.13;;
42602;SDS011;28233;55.748;48.752;2022-07-19T00:02:52;0.63;;;0.20;;
42602;SDS011;28233;55.748;48.752;2022-07-19T00:04:55;0.00;;;0.00;;
42602;SDS011;28233;55.748;48.752;2022-07-19T00:06:58;0.10;;;0.10;;
42602;SDS011;28233;55.748;48.752;2022-07-19T00:09:01;0.52;;;0.52;;
42602;SDS011;28233;55.748;48.752;2022-07-19T00:11:05;0.10;;;0.10;;
42602;SDS011;28233;55.748;48.752;2022-07-19T00:13:09;2.17;;;0.47;;
42602;SDS011;28233;55.748;48.752;2022-07-19T00:15:12;1.02;;;0.88;;
42602;SDS011;28233;55.748;48.752;2022-07-19T00:17:16;0.25;;;0.25;;
42602;SDS011;28233;55.748;48.752;2022-07-19T00:19:19;0.32;;;0.32;;
42602;SDS011;28233;55.748;48.752;2022-07-19T00:21:21;0.35;;;0.32;;
42602;SDS011;28233;55.748;48.752;2022-07-19T00:23:24;0.00;;;0.00;;
42602;SDS011;28233;55.748;48.752;2022-07-19T00:25:26;0.10;;;0.10;;
42602;SDS011;28233;55.748;48.752;2022-07-19T00:27:29;0.28;;;0.28;;
42602;SDS011;28233;55.748;48.752;2022-07-19T00:29:32;0.05;;;0.05;;
42602;SDS011;28233;55.748;48.752;2022-07-19T00:31:34;0.25;;;0.20;;
42602;SDS011;28233;55.748;48.752;2022-07-19T00:33:38;0.00;;;0.00;;
42602;SDS011;28233;55.748;48.752;2022-07-19T00:35:40;0.22;;;0.22;;
42602;SDS011;28233;55.748;48.752;2022-07-19T00:37:43;0.10;;;0.10;;
42602;SDS011;28233;55.748;48.752;2022-07-19T00:39:49;0.00;;;0.00;;
42602;SDS011;28233;55.748;48.752;2022-07-19T00:41:52;0.35;;;0.20;;
42602;SDS011;28233;55.748;48.752;2022-07-19T00:43:56;0.85;;;0.50;;
42602;SDS011;28233;55.748;48.752;2022-07-19T00:45:59;0.10;;;0.10;;
42602;SDS011;28233;55.748;48.752;2022-07-19T00:48:02;0.38;;;0.38;;
42602;SDS011;28233;55.748;48.752;2022-07-19T00:50:06;0.10;;;0.10;;
42602;SDS011;28233;55.748;48.752;2022-07-19T00:52:10;0.10;;;0.10;;
42602;SDS011;28233;55.748;48.752;2022-07-19T00:54:15;0.00;;;0.00;;
42602;SDS011;28233;55.748;48.752;2022-07-19T00:56:18;1.92;;;0.90;;
42602;SDS011;28233;55.748;48.752;2022-07-19T00:58:22;0.35;;;0.35;;
42602;SDS011;28233;55.748;48.752;2022-07-19T01:00:27;0.10;;;0.10;;
42602;SDS011;28233;55.748;48.752;2022-07-19T01:02:33;0.47;;;0.47;;
42602;SDS011;28233;55.748;48.752;2022-07-19T01:04:37;0.10;;;0.03;;
42602;SDS011;28233;55.748;48.752;2022-07-19T01:06:40;0.00;;;0.00;;
42602;SDS011;28233;55.748;48.752;2022-07-19T01:08:43;0.20;;;0.20;;
42602;SDS011;28233;55.748;48.752;2022-07-19T01:10:46;0.20;;;0.20;;
42602;SDS011;28233;55.748;48.752;2022-07-19T01:12:49;0.22;;;0.22;;
42602;SDS011;28233;55.748;48.752;2022-07-19T01:14:55;0.35;;;0.35;;
42602;SDS011;28233;55.748;48.752;2022-07-19T01:16:59;0.00;;;0.00;;
42602;SDS011;28233;55.748;48.752;2022-07-19T01:19:05;1.85;;;1.23;;
42602;SDS011;28233;55.748;48.752;2022-07-19T01:21:13;0.90;;;0.45;;
42602;SDS011;28233;55.748;48.752;2022-07-19T01:23:20;0.00;;;0.00;;
42602;SDS011;28233;55.748;48.752;2022-07-19T01:25:24;0.13;;;0.13;;
42602;SDS011;28233;55.748;48.752;2022-07-19T01:27:28;0.10;;;0.03;;
42602;SDS011;28233;55.748;48.752;2022-07-19T01:29:31;0.10;;;0.10;;
42602;SDS011;28233;55.748;48.752;2022-07-19T01:31:34;0.20;;;0.20;;
42602;SDS011;28233;55.748;48.752;2022-07-19T01:33:42;0.50;;;0.15;;
42602;SDS011;28233;55.748;48.752;2022-07-19T01:35:45;0.40;;;0.38;;
42602;SDS011;28233;55.748;48.752;2022-07-19T01:37:48;0.35;;;0.20;;
42602;SDS011;28233;55.748;48.752;2022-07-19T01:39:51;0.03;;;0.03;;
42602;SDS011;28233;55.748;48.752;2022-07-19T01:41:58;0.00;;;0.00;;
42602;SDS011;28233;55.748;48.752;2022-07-19T01:44:01;0.00;;;0.00;;
42602;SDS011;28233;55.748;48.752;2022-07-19T01:46:03;0.55;;;0.55;;
42602;SDS011;28233;55.748;48.752;2022-07-19T01:48:06;0.00;;;0.00;;
42602;SDS011;28233;55.748;48.752;2022-07-19T01:50:10;0.43;;;0.43;;
42602;SDS011;28233;55.748;48.752;2022-07-19T01:52:13;0.00;;;0.00;;
42602;SDS011;28233;55.748;48.752;2022-07-19T01:54:16;0.28;;;0.28;;
42602;SDS011;28233;55.748;48.752;2022-07-19T01:56:19;0.00;;;0.00;;
42602;SDS011;28233;55.748;48.752;2022-07-19T01:58:21;0.15;;;0.13;;
42602;SDS011;28233;55.748;48.752;2022-07-19T02:00:24;0.20;;;0.20;;
42602;SDS011;28233;55.748;48.752;2022-07-19T02:02:26;0.32;;;0.32;;
42602;SDS011;28233;55.748;48.752;2022-07-19T02:04:29;0.00;;;0.00;;
42602;SDS011;28233;55.748;48.752;2022-07-19T02:06:32;0.00;;;0.00;;
42602;SDS011;28233;55.748;48.752;2022-07-19T02:08:35;0.00;;;0.00;;
42602;SDS011;28233;55.748;48.752;2022-07-19T02:10:37;0.20;;;0.20;;
42602;SDS011;28233;55.748;48.752;2022-07-19T02:12:40;0.32;;;0.32;;
42602;SDS011;28233;55.748;48.752;2022-07-19T02:14:43;0.17;;;0.17;;
42602;SDS011;28233;55.748;48.752;2022-07-19T02:16:45;0.32;;;0.32;;
42602;SDS011;28233;55.748;48.752;2022-07-19T02:18:48;0.00;;;0.00;;
42602;SDS011;28233;55.748;48.752;2022-07-19T02:20:50;0.55;;;0.43;;
42602;SDS011;28233;55.748;48.752;2022-07-19T02:22:53;0.15;;;0.15;;
42602;SDS011;28233;55.748;48.752;2022-07-19T02:24:55;0.70;;;0.52;;
42602;SDS011;28233;55.748;48.752;2022-07-19T02:26:58;0.05;;;0.05;;
42602;SDS011;28233;55.748;48.752;2022-07-19T02:29:01;0.13;;;0.13;;
42602;SDS011;28233;55.748;48.752;2022-07-19T02:31:03;0.13;;;0.13;;
42602;SDS011;28233;55.748;48.752;2022-07-19T02:33:06;0.47;;;0.47;;
42602;SDS011;28233;55.748;48.752;2022-07-19T02:35:09;0.22;;;0.22;;
42602;SDS011;28233;55.748;48.752;2022-07-19T02:37:13;0.52;;;0.20;;
42602;SDS011;28233;55.748;48.752;2022-07-19T02:39:15;0.13;;;0.13;;
42602;SDS011;28233;55.748;48.752;2022-07-19T02:41:18;0.80;;;0.55;;
42602;SDS011;28233;55.748;48.752;2022-07-19T02:43:20;0.40;;;0.30;;
42602;SDS011;28233;55.748;48.752;2022-07-19T02:45:23;0.43;;;0.38;;
42602;SDS011;28233;55.748;48.752;2022-07-19T02:47:25;0.47;;;0.47;;
42602;SDS011;28233;55.748;48.752;2022-07-19T02:49:28;0.03;;;0.03;;
42602;SDS011;28233;55.748;48.752;2022-07-19T02:51:31;0.85;;;0.15;;
42602;SDS011;28233;55.748;48.752;2022-07-19T02:53:34;0.00;;;0.00;;
42602;SDS011;28233;55.748;48.752;2022-07-19T02:55:36;0.30;;;0.30;;
42602;SDS011;28233;55.748;48.752;2022-07-19T02:57:39;0.00;;;0.00;;
42602;SDS011;28233;55.748;48.752;2022-07-19T02:59:41;0.00;;;0.00;;
42602;SDS011;28233;55.748;48.752;2022-07-19T03:01:44;0.00;;;0.00;;
42602;SDS011;28233;55.748;48.752;2022-07-19T03:03:47;0.17;;;0.17;;
42602;SDS011;28233;55.748;48.752;2022-07-19T03:05:49;0.10;;;0.10;;
42602;SDS011;28233;55.748;48.752;2022-07-19T03:07:52;0.00;;;0.00;;
42602;SDS011;28233;55.748;48.752;2022-07-19T03:09:54;0.65;;;0.32;;
42602;SDS011;28233;55.748;48.752;2022-07-19T03:11:58;0.05;;;0.00;;
42602;SDS011;28233;55.748;48.752;2022-07-19T03:14:01;0.30;;;0.30;;
42602;SDS011;28233;55.748;48.752;2022-07-19T03:16:03;0.00;;;0.00;;
42602;SDS011;28233;55.748;48.752;2022-07-19T03:18:06;0.10;;;0.10;;
42602;SDS011;28233;55.748;48.752;2022-07-19T03:20:09;0.43;;;0.43;;
42602;SDS011;28233;55.748;48.752;2022-07-19T03:22:12;0.43;;;0.30;;
42602;SDS011;28233;55.748;48.752;2022-07-19T03:24:15;0.10;;;0.10;;
42602;SDS011;28233;55.748;48.752;2022-07-19T03:26:17;0.35;;;0.35;;
42602;SDS011;28233;55.748;48.752;2022-07-19T03:28:20;0.52;;;0.45;;
42602;SDS011;28233;55.748;48.752;2022-07-19T03:30:23;0.90;;;0.90;;
42602;SDS011;28233;55.748;48.752;2022-07-19T03:32:25;0.30;;;0.30;;
42602;SDS011;28233;55.748;48.752;2022-07-19T03:34:28;0.10;;;0.08;;
42602;SDS011;28233;55.748;48.752;2022-07-19T03:36:31;1.73;;;0.50;;
42602;SDS011;28233;55.748;48.752;2022-07-19T03:38:34;0.25;;;0.25;;
42602;SDS011;28233;55.748;48.752;2022-07-19T03:40:37;0.05;;;0.05;;
42602;SDS011;28233;55.748;48.752;2022-07-19T03:42:39;0.00;;;0.00;;
42602;SDS011;28233;55.748;48.752;2022-07-19T03:44:42;0.00;;;0.00;;
42602;SDS011;28233;55.748;48.752;2022-07-19T03:46:45;0.08;;;0.05;;
42602;SDS011;28233;55.748;48.752;2022-07-19T03:48:47;0.40;;;0.22;;
42602;SDS011;28233;55.748;48.752;2022-07-19T03:50:51;0.20;;;0.10;;
42602;SDS011;28233;55.748;48.752;2022-07-19T03:52:53;0.00;;;0.00;;
42602;SDS011;28233;55.748;48.752;2022-07-19T03:54:56;0.45;;;0.43;;
42602;SDS011;28233;55.748;48.752;2022-07-19T03:56:58;0.85;;;0.10;;
42602;SDS011;28233;55.748;48.752;2022-07-19T03:59:01;1.35;;;0.68;;
42602;SDS011;28233;55.748;48.752;2022-07-19T04:01:06;0.38;;;0.38;;
42602;SDS011;28233;55.748;48.752;2022-07-19T04:03:09;0.00;;;0.00;;
42602;SDS011;28233;55.748;48.752;2022-07-19T04:05:12;1.70;;;0.75;;
42602;SDS011;28233;55.748;48.752;2022-07-19T04:07:14;0.30;;;0.30;;
42602;SDS011;28233;55.748;48.752;2022-07-19T04:09:17;0.98;;;0.65;;
42602;SDS011;28233;55.748;48.752;2022-07-19T04:11:19;0.10;;;0.08;;
42602;SDS011;28233;55.748;48.752;2022-07-19T04:13:22;0.00;;;0.00;;
42602;SDS011;28233;55.748;48.752;2022-07-19T04:15:24;0.00;;;0.00;;
42602;SDS011;28233;55.748;48.752;2022-07-19T04:17:27;0.00;;;0.00;;
42602;SDS011;28233;55.748;48.752;2022-07-19T04:19:30;0.20;;;0.20;;
42602;SDS011;28233;55.748;48.752;2022-07-19T04:21:33;0.13;;;0.10;;
42602;SDS011;28233;55.748;48.752;2022-07-19T04:23:36;0.20;;;0.20;;
42602;SDS011;28233;55.748;48.752;2022-07-19T04:25:39;0.25;;;0.25;;
42602;SDS011;28233;55.748;48.752;2022-07-19T04:27:41;0.00;;;0.00;;
42602;SDS011;28233;55.748;48.752;2022-07-19T04:29:44;0.00;;;0.00;;
42602;SDS011;28233;55.748;48.752;2022-07-19T04:31:46;0.13;;;0.13;;
42602;SDS011;28233;55.748;48.752;2022-07-19T04:33:49;0.43;;;0.43;;
42602;SDS011;28233;55.748;48.752;2022-07-19T04:35:52;0.20;;;0.20;;
42602;SDS011;28233;55.748;48.752;2022-07-19T04:37:55;0.25;;;0.22;;
42602;SDS011;28233;55.748;48.752;2022-07-19T04:39:58;1.27;;;0.90;;
42602;SDS011;28233;55.748;48.752;2022-07-19T04:42:01;0.17;;;0.17;;
42602;SDS011;28233;55.748;48.752;2022-07-19T04:44:03;0.15;;;0.08;;
42602;SDS011;28233;55.748;48.752;2022-07-19T04:46:06;0.25;;;0.25;;
42602;SDS011;28233;55.748;48.752;2022-07-19T04:48:10;0.32;;;0.32;;
42602;SDS011;28233;55.748;48.752;2022-07-19T04:50:13;0.55;;;0.10;;
42602;SDS011;28233;55.748;48.752;2022-07-19T04:52:15;0.70;;;0.45;;
42602;SDS011;28233;55.748;48.752;2022-07-19T04:54:18;0.57;;;0.57;;
42602;SDS011;28233;55.748;48.752;2022-07-19T04:56:21;0.25;;;0.25;;
42602;SDS011;28233;55.748;48.752;2022-07-19T04:58:23;0.30;;;0.30;;
42602;SDS011;28233;55.748;48.752;2022-07-19T05:00:26;0.98;;;0.85;;
42602;SDS011;28233;55.748;48.752;2022-07-19T05:02:28;0.00;;;0.00;;
42602;SDS011;28233;55.748;48.752;2022-07-19T05:04:31;0.00;;;0.00;;
42602;SDS011;28233;55.748;48.752;2022-07-19T05:06:34;0.88;;;0.52;;
42602;SDS011;28233;55.748;48.752;2022-07-19T05:08:36;1.88;;;0.10;;
42602;SDS011;28233;55.748;48.752;2022-07-19T05:10:39;0.32;;;0.32;;
42602;SDS011;28233;55.748;48.752;2022-07-19T05:12:42;0.00;;;0.00;;
42602;SDS011;28233;55.748;48.752;2022-07-19T05:14:44;0.00;;;0.00;;
42602;SDS011;28233;55.748;48.752;2022-07-19T05:16:47;0.00;;;0.00;;
42602;SDS011;28233;55.748;48.752;2022-07-19T05:18:51;0.00;;;0.00;;
42602;SDS011;28233;55.748;48.752;2022-07-19T05:20:54;0.00;;;0.00;;
42602;SDS011;28233;55.748;48.752;2022-07-19T05:22:56;0.00;;;0.00;;
42602;SDS011;28233;55.748;48.752;2022-07-19T05:24:59;0.00;;;0.00;;
42602;SDS011;28233;55.748;48.752;2022-07-19T05:27:02;0.00;;;0.00;;
42602;SDS011;28233;55.748;48.752;2022-07-19T05:29:04;0.00;;;0.00;;
42602;SDS011;28233;55.748;48.752;2022-07-19T05:31:07;0.20;;;0.17;;
42602;SDS011;28233;55.748;48.752;2022-07-19T05:33:10;0.00;;;0.00;;
42602;SDS011;28233;55.748;48.752;2022-07-19T05:35:13;0.00;;;0.00;;
42602;SDS011;28233;55.748;48.752;2022-07-19T05:37:15;0.00;;;0.00;;
42602;SDS011;28233;55.748;48.752;2022-07-19T05:39:18;0.03;;;0.03;;
42602;SDS011;28233;55.748;48.752;2022-07-19T05:41:21;0.63;;;0.13;;
42602;SDS011;28233;55.748;48.752;2022-07-19T05:43:25;0.00;;;0.00;;
42602;SDS011;28233;55.748;48.752;2022-07-19T05:45:28;0.00;;;0.00;;
42602;SDS011;28233;55.748;48.752;2022-07-19T05:47:30;0.20;;;0.20;;
42602;SDS011;28233;55.748;48.752;2022-07-19T05:49:33;2.90;;;0.47;;
42602;SDS011;28233;55.748;48.752;2022-07-19T05:51:36;1.65;;;0.90;;
42602;SDS011;28233;55.748;48.752;2022-07-19T05:53:38;0.88;;;0.55;;
42602;SDS011;28233;55.748;48.752;2022-07-19T05:55:41;1.23;;;0.65;;
42602;SDS011;28233;55.748;48.752;2022-07-19T05:57:44;2.00;;;0.70;;
42602;SDS011;28233;55.748;48.752;2022-07-19T05:59:46;3.22;;;1.17;;
42602;SDS011;28233;55.748;48.752;2022-07-19T06:01:49;10.57;;;1.65;;
42602;SDS011;28233;55.748;48.752;2022-07-19T06:03:53;2.03;;;0.95;;
42602;SDS011;28233;55.748;48.752;2022-07-19T06:06:00;1.00;;;0.70;;
42602;SDS011;28233;55.748;48.752;2022-07-19T06:08:03;1.85;;;0.70;;
42602;SDS011;28233;55.748;48.752;2022-07-19T06:10:06;1.80;;;0.90;;
42602;SDS011;28233;55.748;48.752;2022-07-19T06:12:09;2.58;;;0.82;;
42602;SDS011;28233;55.748;48.752;2022-07-19T06:14:11;1.88;;;1.13;;
42602;SDS011;28233;55.748;48.752;2022-07-19T06:16:14;4.40;;;0.80;;
42602;SDS011;28233;55.748;48.752;2022-07-19T06:18:17;6.60;;;1.08;;
42602;SDS011;28233;55.748;48.752;2022-07-19T06:20:21;4.55;;;0.90;;
42602;SDS011;28233;55.748;48.752;2022-07-19T06:22:24;2.75;;;1.08;;
42602;SDS011;28233;55.748;48.752;2022-07-19T06:24:26;2.38;;;1.13;;
42602;SDS011;28233;55.748;48.752;2022-07-19T06:26:29;2.17;;;1.30;;
42602;SDS011;28233;55.748;48.752;2022-07-19T06:28:31;9.57;;;1.40;;
42602;SDS011;28233;55.748;48.752;2022-07-19T06:30:41;3.35;;;0.82;;
42602;SDS011;28233;55.748;48.752;2022-07-19T06:32:44;1.73;;;1.20;;
42602;SDS011;28233;55.748;48.752;2022-07-19T06:34:46;2.63;;;1.30;;
42602;SDS011;28233;55.748;48.752;2022-07-19T06:36:49;1.92;;;1.02;;
42602;SDS011;28233;55.748;48.752;2022-07-19T06:38:52;3.88;;;0.70;;
42602;SDS011;28233;55.748;48.752;2022-07-19T06:40:54;5.95;;;1.00;;
42602;SDS011;28233;55.748;48.752;2022-07-19T06:42:57;4.80;;;0.70;;
42602;SDS011;28233;55.748;48.752;2022-07-19T06:45:00;2.88;;;0.90;;
42602;SDS011;28233;55.748;48.752;2022-07-19T06:47:05;6.82;;;0.70;;
42602;SDS011;28233;55.748;48.752;2022-07-19T06:49:07;0.93;;;0.60;;
42602;SDS011;28233;55.748;48.752;2022-07-19T06:51:10;5.57;;;0.80;;
42602;SDS011;28233;55.748;48.752;2022-07-19T06:53:12;1.33;;;0.88;;
42602;SDS011;28233;55.748;48.752;2022-07-19T06:55:15;0.60;;;0.40;;
42602;SDS011;28233;55.748;48.752;2022-07-19T06:57:18;0.82;;;0.60;;
42602;SDS011;28233;55.748;48.752;2022-07-19T06:59:20;2.22;;;0.80;;
42602;SDS011;28233;55.748;48.752;2022-07-19T07:01:23;1.77;;;0.68;;
42602;SDS011;28233;55.748;48.752;2022-07-19T07:03:26;4.82;;;0.93;;
42602;SDS011;28233;55.748;48.752;2022-07-19T07:05:28;2.00;;;0.80;;
42602;SDS011;28233;55.748;48.752;2022-07-19T07:07:31;2.90;;;0.73;;
42602;SDS011;28233;55.748;48.752;2022-07-19T07:09:34;3.55;;;0.75;;
42602;SDS011;28233;55.748;48.752;2022-07-19T07:11:36;2.97;;;0.95;;
42602;SDS011;28233;55.748;48.752;2022-07-19T07:13:39;4.47;;;0.88;;
42602;SDS011;28233;55.748;48.752;2022-07-19T07:15:42;7.57;;;1.45;;
42602;SDS011;28233;55.748;48.752;2022-07-19T07:17:45;6.57;;;1.50;;
42602;SDS011;28233;55.748;48.752;2022-07-19T07:19:48;6.20;;;2.17;;
42602;SDS011;28233;55.748;48.752;2022-07-19T07:21:51;1.23;;;0.65;;
42602;SDS011;28233;55.748;48.752;2022-07-19T07:23:53;3.80;;;1.02;;
42602;SDS011;28233;55.748;48.752;2022-07-19T07:25:56;4.72;;;1.38;;
42602;SDS011;28233;55.748;48.752;2022-07-19T07:27:59;1.10;;;0.55;;
42602;SDS011;28233;55.748;48.752;2022-07-19T07:30:02;13.52;;;2.60;;
42602;SDS011;28233;55.748;48.752;2022-07-19T07:32:06;5.13;;;0.55;;
42602;SDS011;28233;55.748;48.752;2022-07-19T07:34:09;1.00;;;0.50;;
42602;SDS011;28233;55.748;48.752;2022-07-19T07:36:12;2.95;;;0.30;;
42602;SDS011;28233;55.748;48.752;2022-07-19T07:38:15;1.17;;;0.32;;
42602;SDS011;28233;55.748;48.752;2022-07-19T07:40:18;9.27;;;0.98;;
42602;SDS011;28233;55.748;48.752;2022-07-19T07:42:21;0.50;;;0.30;;
42602;SDS011;28233;55.748;48.752;2022-07-19T07:44:25;4.45;;;0.40;;
42602;SDS011;28233;55.748;48.752;2022-07-19T07:46:28;4.22;;;0.55;;
42602;SDS011;28233;55.748;48.752;2022-07-19T07:48:31;1.30;;;0.50;;
42602;SDS011;28233;55.748;48.752;2022-07-19T07:50:34;5.30;;;0.55;;
42602;SDS011;28233;55.748;48.752;2022-07-19T07:52:36;8.93;;;0.68;;
42602;SDS011;28233;55.748;48.752;2022-07-19T07:54:39;1.50;;;0.40;;
42602;SDS011;28233;55.748;48.752;2022-07-19T07:57:02;5.70;;;0.40;;
42602;SDS011;28233;55.748;48.752;2022-07-19T07:59:05;1.50;;;0.47;;
42602;SDS011;28233;55.748;48.752;2022-07-19T08:01:07;3.75;;;0.45;;
42602;SDS011;28233;55.748;48.752;2022-07-19T08:03:10;3.53;;;0.50;;
42602;SDS011;28233;55.748;48.752;2022-07-19T08:05:13;1.80;;;0.30;;
42602;SDS011;28233;55.748;48.752;2022-07-19T08:07:16;3.80;;;0.50;;
42602;SDS011;28233;55.748;48.752;2022-07-19T08:09:18;4.07;;;0.50;;
42602;SDS011;28233;55.748;48.752;2022-07-19T08:11:21;2.88;;;0.30;;
42602;SDS011;28233;55.748;48.752;2022-07-19T08:13:24;0.50;;;0.20;;
42602;SDS011;28233;55.748;48.752;2022-07-19T08:15:27;2.10;;;0.30;;
42602;SDS011;28233;55.748;48.752;2022-07-19T08:17:29;0.30;;;0.20;;
42602;SDS011;28233;55.748;48.752;2022-07-19T08:19:32;0.60;;;0.20;;
42602;SDS011;28233;55.748;48.752;2022-07-19T08:21:34;2.10;;;0.38;;
42602;SDS011;28233;55.748;48.752;2022-07-19T08:23:37;3.75;;;0.57;;
42602;SDS011;28233;55.748;48.752;2022-07-19T08:25:43;0.60;;;0.30;;
42602;SDS011;28233;55.748;48.752;2022-07-19T08:27:46;2.20;;;0.30;;
42602;SDS011;28233;55.748;48.752;2022-07-19T08:29:48;0.10;;;0.10;;
42602;SDS011;28233;55.748;48.752;2022-07-19T08:31:51;2.03;;;0.20;;
42602;SDS011;28233;55.748;48.752;2022-07-19T08:33:54;4.25;;;0.35;;
42602;SDS011;28233;55.748;48.752;2022-07-19T08:35:56;1.00;;;0.30;;
42602;SDS011;28233;55.748;48.752;2022-07-19T08:37:59;3.05;;;0.45;;
42602;SDS011;28233;55.748;48.752;2022-07-19T08:40:03;2.78;;;0.38;;
42602;SDS011;28233;55.748;48.752;2022-07-19T08:42:07;0.95;;;0.25;;
42602;SDS011;28233;55.748;48.752;2022-07-19T08:44:12;2.22;;;0.63;;
42602;SDS011;28233;55.748;48.752;2022-07-19T08:46:15;5.25;;;0.73;;
42602;SDS011;28233;55.748;48.752;2022-07-19T08:48:20;5.10;;;0.25;;
42602;SDS011;28233;55.748;48.752;2022-07-19T08:50:25;8.70;;;0.52;;
42602;SDS011;28233;55.748;48.752;2022-07-19T08:52:28;0.85;;;0.30;;
42602;SDS011;28233;55.748;48.752;2022-07-19T08:54:31;4.93;;;0.32;;
42602;SDS011;28233;55.748;48.752;2022-07-19T08:56:36;2.40;;;0.30;;
42602;SDS011;28233;55.748;48.752;2022-07-19T08:58:57;1.48;;;0.30;;
42602;SDS011;28233;55.748;48.752;2022-07-19T09:01:00;3.78;;;0.40;;
42602;SDS011;28233;55.748;48.752;2022-07-19T09:03:06;1.55;;;0.70;;
42602;SDS011;28233;55.748;48.752;2022-07-19T09:05:10;0.60;;;0.28;;
42602;SDS011;28233;55.748;48.752;2022-07-19T09:07:15;8.88;;;0.30;;
42602;SDS011;28233;55.748;48.752;2022-07-19T09:09:21;1.30;;;0.50;;
42602;SDS011;28233;55.748;48.752;2022-07-19T09:11:33;2.50;;;0.30;;
42602;SDS011;28233;55.748;48.752;2022-07-19T09:13:40;3.55;;;0.40;;
42602;SDS011;28233;55.748;48.752;2022-07-19T09:15:47;0.73;;;0.25;;
42602;SDS011;28233;55.748;48.752;2022-07-19T09:18:04;3.58;;;0.50;;
42602;SDS011;28233;55.748;48.752;2022-07-19T09:20:25;0.93;;;0.32;;
42602;SDS011;28233;55.748;48.752;2022-07-19T09:22:29;3.10;;;0.40;;
42602;SDS011;28233;55.748;48.752;2022-07-19T09:24:36;3.30;;;0.52;;
42602;SDS011;28233;55.748;48.752;2022-07-19T09:26:56;1.23;;;0.63;;
42602;SDS011;28233;55.748;48.752;2022-07-19T09:29:15;1.58;;;0.32;;
42602;SDS011;28233;55.748;48.752;2022-07-19T09:31:19;1.88;;;0.35;;
42602;SDS011;28233;55.748;48.752;2022-07-19T09:33:23;1.58;;;0.30;;
42602;SDS011;28233;55.748;48.752;2022-07-19T09:35:34;6.15;;;0.35;;
42602;SDS011;28233;55.748;48.752;2022-07-19T09:37:44;0.38;;;0.30;;
42602;SDS011;28233;55.748;48.752;2022-07-19T09:39:50;0.63;;;0.47;;
42602;SDS011;28233;55.748;48.752;2022-07-19T09:41:57;4.10;;;0.50;;
42602;SDS011;28233;55.748;48.752;2022-07-19T09:44:00;1.13;;;0.30;;
42602;SDS011;28233;55.748;48.752;2022-07-19T09:46:05;1.58;;;0.28;;
42602;SDS011;28233;55.748;48.752;2022-07-19T09:48:49;0.38;;;0.32;;
42602;SDS011;28233;55.748;48.752;2022-07-19T09:50:51;0.60;;;0.20;;
42602;SDS011;28233;55.748;48.752;2022-07-19T09:52:54;1.30;;;0.43;;
42602;SDS011;28233;55.748;48.752;2022-07-19T09:55:04;1.00;;;0.40;;
42602;SDS011;28233;55.748;48.752;2022-07-19T09:57:09;0.17;;;0.15;;
42602;SDS011;28233;55.748;48.752;2022-07-19T09:59:12;0.43;;;0.20;;
42602;SDS011;28233;55.748;48.752;2022-07-19T10:01:15;1.08;;;0.20;;
42602;SDS011;28233;55.748;48.752;2022-07-19T10:03:18;0.47;;;0.30;;
42602;SDS011;28233;55.748;48.752;2022-07-19T10:05:21;3.28;;;0.32;;
42602;SDS011;28233;55.748;48.752;2022-07-19T10:07:26;0.50;;;0.30;;
42602;SDS011;28233;55.748;48.752;2022-07-19T10:09:29;2.17;;;0.38;;
42602;SDS011;28233;55.748;48.752;2022-07-19T10:11:32;0.45;;;0.20;;
42602;SDS011;28233;55.748;48.752;2022-07-19T10:13:35;2.83;;;0.28;;
42602;SDS011;28233;55.748;48.752;2022-07-19T10:15:39;0.68;;;0.50;;
42602;SDS011;28233;55.748;48.752;2022-07-19T10:20:14;2.08;;;0.50;;
42602;SDS011;28233;55.748;48.752;2022-07-19T10:22:20;4.72;;;0.68;;
42602;SDS011;28233;55.748;48.752;2022-07-19T10:26:51;0.73;;;0.40;;
42602;SDS011;28233;55.748;48.752;2022-07-19T10:29:11;0.40;;;0.40;;
42602;SDS011;28233;55.748;48.752;2022-07-19T10:31:28;3.13;;;0.80;;
42602;SDS011;28233;55.748;48.752;2022-07-19T10:33:34;1.00;;;0.65;;
42602;SDS011;28233;55.748;48.752;2022-07-19T10:35:41;1.65;;;0.70;;
42602;SDS011;28233;55.748;48.752;2022-07-19T10:37:53;0.85;;;0.47;;
42602;SDS011;28233;55.748;48.752;2022-07-19T10:39:57;0.93;;;0.70;;
42602;SDS011;28233;55.748;48.752;2022-07-19T10:42:08;1.60;;;1.38;;
42602;SDS011;28233;55.748;48.752;2022-07-19T10:44:16;5.00;;;1.35;;
42602;SDS011;28233;55.748;48.752;2022-07-19T10:46:25;2.40;;;1.65;;
42602;SDS011;28233;55.748;48.752;2022-07-19T10:48:36;2.17;;;1.20;;
42602;SDS011;28233;55.748;48.752;2022-07-19T10:50:55;7.97;;;2.47;;
42602;SDS011;28233;55.748;48.752;2022-07-19T10:53:00;0.80;;;0.60;;
42602;SDS011;28233;55.748;48.752;2022-07-19T10:57:35;1.20;;;0.85;;
42602;SDS011;28233;55.748;48.752;2022-07-19T10:59:41;3.05;;;0.95;;
42602;SDS011;28233;55.748;48.752;2022-07-19T11:01:55;1.45;;;1.02;;
42602;SDS011;28233;55.748;48.752;2022-07-19T11:04:22;1.15;;;0.88;;
42602;SDS011;28233;55.748;48.752;2022-07-19T11:06:27;1.63;;;1.10;;
42602;SDS011;28233;55.748;48.752;2022-07-19T11:08:33;3.65;;;1.13;;
42602;SDS011;28233;55.748;48.752;2022-07-19T11:10:40;3.88;;;1.42;;
42602;SDS011;28233;55.748;48.752;2022-07-19T11:12:43;1.15;;;0.80;;
42602;SDS011;28233;55.748;48.752;2022-07-19T11:14:47;2.05;;;0.85;;
42602;SDS011;28233;55.748;48.752;2022-07-19T11:17:09;1.30;;;1.00;;
42602;SDS011;28233;55.748;48.752;2022-07-19T11:19:12;3.80;;;0.77;;
42602;SDS011;28233;55.748;48.752;2022-07-19T11:21:15;4.82;;;1.15;;
42602;SDS011;28233;55.748;48.752;2022-07-19T11:23:19;1.00;;;0.70;;
42602;SDS011;28233;55.748;48.752;2022-07-19T11:25:29;1.90;;;1.05;;
42602;SDS011;28233;55.748;48.752;2022-07-19T11:27:32;0.90;;;0.82;;
42602;SDS011;28233;55.748;48.752;2022-07-19T11:32:00;6.10;;;1.05;;
42602;SDS011;28233;55.748;48.752;2022-07-19T11:34:10;2.90;;;1.20;;
42602;SDS011;28233;55.748;48.752;2022-07-19T11:36:14;3.10;;;0.90;;
42602;SDS011;28233;55.748;48.752;2022-07-19T11:38:18;3.00;;;1.13;;
42602;SDS011;28233;55.748;48.752;2022-07-19T11:40:21;4.63;;;0.90;;
42602;SDS011;28233;55.748;48.752;2022-07-19T11:42:32;2.83;;;0.70;;
42602;SDS011;28233;55.748;48.752;2022-07-19T11:45:14;2.80;;;0.80;;
42602;SDS011;28233;55.748;48.752;2022-07-19T11:47:19;4.45;;;0.95;;
42602;SDS011;28233;55.748;48.752;2022-07-19T11:49:22;3.03;;;0.95;;
42602;SDS011;28233;55.748;48.752;2022-07-19T11:51:25;5.35;;;1.33;;
42602;SDS011;28233;55.748;48.752;2022-07-19T11:53:29;5.38;;;1.10;;
42602;SDS011;28233;55.748;48.752;2022-07-19T11:55:36;2.78;;;1.00;;
42602;SDS011;28233;55.748;48.752;2022-07-19T11:57:40;4.07;;;0.80;;
42602;SDS011;28233;55.748;48.752;2022-07-19T11:59:43;2.95;;;0.95;;
42602;SDS011;28233;55.748;48.752;2022-07-19T12:01:45;0.90;;;0.70;;
42602;SDS011;28233;55.748;48.752;2022-07-19T12:04:04;2.35;;;0.70;;
42602;SDS011;28233;55.748;48.752;2022-07-19T12:06:09;1.65;;;0.77;;
42602;SDS011;28233;55.748;48.752;2022-07-19T12:08:11;1.17;;;1.02;;
42602;SDS011;28233;55.748;48.752;2022-07-19T12:12:55;6.75;;;1.42;;
42602;SDS011;28233;55.748;48.752;2022-07-19T12:15:07;3.50;;;1.20;;
42602;SDS011;28233;55.748;48.752;2022-07-19T12:17:17;2.75;;;1.25;;
42602;SDS011;28233;55.748;48.752;2022-07-19T12:19:22;1.60;;;0.82;;
42602;SDS011;28233;55.748;48.752;2022-07-19T12:23:33;1.33;;;0.80;;
42602;SDS011;28233;55.748;48.752;2022-07-19T12:25:36;3.85;;;0.77;;
42602;SDS011;28233;55.748;48.752;2022-07-19T12:27:40;1.67;;;0.82;;
42602;SDS011;28233;55.748;48.752;2022-07-19T12:29:44;3.25;;;1.20;;
42602;SDS011;28233;55.748;48.752;2022-07-19T12:31:49;4.90;;;1.30;;